Time;durP1;ratioP1;P1;durP2;ratioP2;P2;SDS_P1;SDS_P2;PMS_P1;PMS_P2;Temp;Humidity;BMP_temperature;BMP_pressure;BME280_temperature;BME280_humidity;BME280_pressure;Samples;Min_cycle;Max_cycle;Signal;HPM_P1;HPM_P2
2020/12/12 00:00:29;;;;;;;;;;;5.10;99.90;;;;;;5075958;28;20348;-82
2020/12/12 00:02:55;;;;;;;;;;;5.10;99.90;;;;;;5069113;28;19912;-82
2020/12/12 00:05:20;;;;;;;;;;;5.10;99.90;;;;;;5071697;28;19913;-82
2020/12/12 00:07:46;;;;;;;;;;;5.10;99.90;;;;;;5077343;28;19920;-82
2020/12/12 00:10:11;;;;;;;;;;;5.10;99.90;;;;;;5080225;28;19908;-82
2020/12/12 00:12:36;;;;;;;;;;;5.10;99.90;;;;;;5079572;28;20000;-82
2020/12/12 00:15:03;;;;;;;;;;;5.20;99.90;;;;;;5065147;28;19920;-82
2020/12/12 00:17:29;;;;;;;;;;;5.10;99.90;;;;;;5070949;28;19923;-82
2020/12/12 00:19:54;;;;;;;;;;;5.20;99.90;;;;;;5055413;28;20000;-82
2020/12/12 00:22:20;;;;;;;;;;;5.20;99.90;;;;;;5070771;28;19912;-81
2020/12/12 00:24:45;;;;;;;;;;;5.20;99.90;;;;;;5079206;28;20288;-82
2020/12/12 00:27:11;;;;;;;;;;;5.20;99.90;;;;;;5073091;28;19916;-82
2020/12/12 00:29:36;;;;;;;;;;;5.20;99.90;;;;;;5079177;28;19913;-82
2020/12/12 00:32:02;;;;;;;;;;;5.30;99.90;;;;;;5072222;28;19959;-82
2020/12/12 00:34:27;;;;;;;;;;;5.30;99.90;;;;;;5078943;28;20122;-83
2020/12/12 00:36:53;;;;;;;;;;;5.30;99.90;;;;;;5081182;28;19947;-82
2020/12/12 00:39:19;;;;;;;;;;;5.20;99.90;;;;;;5081059;28;19976;-83
2020/12/12 00:41:45;;;;;;;;;;;5.30;99.90;;;;;;5062393;28;19912;-82
2020/12/12 00:44:11;;;;;;;;;;;5.30;99.90;;;;;;5082094;28;19979;-82
2020/12/12 00:46:37;;;;;;;;;;;5.30;99.90;;;;;;5079647;28;19912;-82
2020/12/12 00:49:03;;;;;;;;;;;5.30;99.90;;;;;;5082070;28;19954;-82
2020/12/12 00:51:28;;;;;;;;;;;5.30;99.90;;;;;;5079582;28;19924;-82
2020/12/12 00:53:54;;;;;;;;;;;5.30;99.90;;;;;;5082009;28;19912;-82
2020/12/12 00:56:19;;;;;;;;;;;5.30;99.90;;;;;;5080433;28;19936;-82
2020/12/12 00:58:45;;;;;;;;;;;5.30;99.90;;;;;;5081038;28;19920;-82
2020/12/12 01:01:11;;;;;;;;;;;5.20;99.90;;;;;;5081125;28;19912;-82
2020/12/12 01:03:37;;;;;;;;;;;5.20;99.90;;;;;;5080708;28;20356;-82
2020/12/12 01:06:03;;;;;;;;;;;5.20;99.90;;;;;;5079793;28;19935;-82
2020/12/12 01:08:28;;;;;;;;;;;5.20;99.90;;;;;;5081333;28;19923;-82
2020/12/12 01:10:54;;;;;;;;;;;5.20;99.90;;;;;;5080401;28;20283;-82
2020/12/12 01:13:19;;;;;;;;;;;5.20;99.90;;;;;;5079807;28;19919;-82
2020/12/12 01:15:45;;;;;;;;;;;5.20;99.90;;;;;;5079952;28;19912;-82
2020/12/12 01:18:10;;;;;;;;;;;5.30;99.90;;;;;;5080408;28;19971;-82
2020/12/12 01:20:36;;;;;;;;;;;5.30;99.90;;;;;;5080140;28;20368;-82
2020/12/12 01:23:01;;;;;;;;;;;5.30;99.90;;;;;;5079891;28;19912;-82
2020/12/12 01:25:27;;;;;;;;;;;5.30;99.90;;;;;;5081294;28;19908;-83
2020/12/12 01:27:52;;;;;;;;;;;5.30;99.90;;;;;;5079966;28;19917;-82
2020/12/12 01:30:18;;;;;;;;;;;5.30;99.90;;;;;;5079025;28;20368;-82
2020/12/12 01:32:43;;;;;;;;;;;5.40;99.90;;;;;;5061183;28;19931;-82
2020/12/12 01:35:09;;;;;;;;;;;5.40;99.90;;;;;;5079774;28;19913;-82
2020/12/12 01:37:34;;;;;;;;;;;5.40;99.90;;;;;;5061688;28;19912;-82
2020/12/12 01:40:00;;;;;;;;;;;5.50;99.90;;;;;;5063469;28;19914;-82
2020/12/12 01:42:25;;;;;;;;;;;5.50;99.90;;;;;;5080576;28;19939;-82
2020/12/12 01:44:54;;;;;;;;;;;5.50;99.90;;;;;;5079155;28;19913;-82
2020/12/12 01:47:20;;;;;;;;;;;5.50;99.90;;;;;;5079657;28;19920;-82
2020/12/12 01:49:45;;;;;;;;;;;5.50;99.90;;;;;;5082575;28;20411;-82
2020/12/12 01:52:11;;;;;;;;;;;5.50;99.90;;;;;;5074155;28;19908;-82
2020/12/12 01:54:36;;;;;;;;;;;5.60;99.90;;;;;;5091509;28;19908;-82
2020/12/12 01:57:03;;;;;;;;;;;5.60;99.90;;;;;;5080263;28;19999;-82
2020/12/12 01:59:28;;;;;;;;;;;5.60;99.90;;;;;;5079321;28;19913;-82
2020/12/12 02:01:55;;;;;;;;;;;5.60;99.90;;;;;;5078929;28;19913;-82
2020/12/12 02:04:22;;;;;;;;;;;5.60;99.90;;;;;;5078381;28;19912;-82
2020/12/12 02:06:47;;;;;;;;;;;5.60;99.90;;;;;;5072555;28;19914;-82
2020/12/12 02:09:13;;;;;;;;;;;5.60;99.90;;;;;;5078520;28;19920;-82
2020/12/12 02:11:39;;;;;;;;;;;5.60;99.90;;;;;;5078689;28;19991;-82
2020/12/12 02:14:08;;;;;;;;;;;5.60;99.90;;;;;;5078364;28;19939;-82
2020/12/12 02:16:49;;;;;;;;;;;5.60;99.90;;;;;;5061392;28;19935;-82
2020/12/12 02:19:14;;;;;;;;;;;5.60;99.90;;;;;;5078237;28;19979;-82
2020/12/12 02:21:40;;;;;;;;;;;5.70;99.90;;;;;;5078441;28;19921;-82
2020/12/12 02:24:05;;;;;;;;;;;5.70;99.90;;;;;;5077999;28;19957;-82
2020/12/12 02:26:31;;;;;;;;;;;5.70;99.90;;;;;;5060474;28;19916;-82
2020/12/12 02:28:56;;;;;;;;;;;5.70;99.90;;;;;;5078459;28;19924;-82
2020/12/12 02:31:25;;;;;;;;;;;5.70;99.90;;;;;;5079134;28;19944;-82
2020/12/12 02:33:50;;;;;;;;;;;5.70;99.90;;;;;;5078374;28;20016;-83
2020/12/12 02:36:16;;;;;;;;;;;5.70;99.90;;;;;;5078903;28;19952;-82
2020/12/12 02:38:42;;;;;;;;;;;5.70;99.90;;;;;;5078939;28;19966;-82
2020/12/12 02:41:08;;;;;;;;;;;5.70;99.90;;;;;;5064179;28;20470;-82
2020/12/12 02:43:33;;;;;;;;;;;5.70;99.90;;;;;;5060119;28;19956;-82
2020/12/12 02:45:59;;;;;;;;;;;5.70;99.90;;;;;;5077328;28;19919;-82
2020/12/12 02:48:24;;;;;;;;;;;5.70;99.90;;;;;;5079074;28;19912;-83
2020/12/12 02:50:50;;;;;;;;;;;5.70;99.90;;;;;;5078609;28;19916;-83
2020/12/12 02:53:15;;;;;;;;;;;5.70;99.90;;;;;;5077831;28;19965;-82
2020/12/12 02:55:41;;;;;;;;;;;5.70;99.90;;;;;;5079216;28;19912;-82
2020/12/12 02:58:06;;;;;;;;;;;5.80;99.90;;;;;;5077213;28;19912;-82
2020/12/12 03:00:32;;;;;;;;;;;5.80;99.90;;;;;;5060785;28;19912;-82
2020/12/12 03:02:57;;;;;;;;;;;5.80;99.90;;;;;;5077769;28;20371;-82
2020/12/12 03:05:23;;;;;;;;;;;5.80;99.90;;;;;;5080890;28;19913;-82
2020/12/12 03:07:48;;;;;;;;;;;5.80;99.90;;;;;;5082189;28;19912;-82
2020/12/12 03:10:14;;;;;;;;;;;5.80;99.90;;;;;;5079335;28;20469;-82
2020/12/12 03:12:39;;;;;;;;;;;5.80;99.90;;;;;;5060198;28;19979;-82
2020/12/12 03:15:06;;;;;;;;;;;5.80;99.90;;;;;;5058321;28;19920;-82
2020/12/12 03:17:32;;;;;;;;;;;5.70;99.90;;;;;;5078795;28;19916;-82
2020/12/12 03:19:57;;;;;;;;;;;5.70;99.90;;;;;;5058734;28;19977;-83
2020/12/12 03:22:23;;;;;;;;;;;5.70;99.90;;;;;;5131467;22;19931;-83
2020/12/12 03:24:48;;;;;;;;;;;5.70;99.90;;;;;;5120638;28;19954;-83
2020/12/12 03:27:14;;;;;;;;;;;5.70;99.90;;;;;;5121555;28;19937;-83
2020/12/12 03:29:39;;;;;;;;;;;5.70;99.90;;;;;;5121309;28;20423;-84
2020/12/12 03:32:05;;;;;;;;;;;5.70;99.90;;;;;;5095894;28;19934;-84
2020/12/12 03:34:31;;;;;;;;;;;5.60;99.90;;;;;;5099806;28;19912;-84
2020/12/12 03:36:56;;;;;;;;;;;5.60;99.90;;;;;;5100087;28;20360;-82
2020/12/12 03:39:22;;;;;;;;;;;5.60;99.90;;;;;;5100638;28;19979;-83
2020/12/12 03:41:47;;;;;;;;;;;5.60;99.90;;;;;;5083120;28;20338;-83
2020/12/12 03:44:12;;;;;;;;;;;5.60;99.90;;;;;;5081584;28;19909;-84
2020/12/12 03:46:38;;;;;;;;;;;5.60;99.90;;;;;;5101473;28;19909;-84
2020/12/12 03:49:03;;;;;;;;;;;5.60;99.90;;;;;;5098132;28;19919;-83
2020/12/12 03:51:29;;;;;;;;;;;5.60;99.90;;;;;;5101164;28;19912;-83
2020/12/12 03:53:54;;;;;;;;;;;5.60;99.90;;;;;;5081895;28;20178;-83
2020/12/12 03:56:20;;;;;;;;;;;5.60;99.90;;;;;;5082525;28;19930;-84
2020/12/12 03:58:45;;;;;;;;;;;5.70;99.90;;;;;;5099499;28;19934;-84
2020/12/12 04:01:11;;;;;;;;;;;5.70;99.90;;;;;;5101499;28;20340;-83
2020/12/12 04:03:36;;;;;;;;;;;5.70;99.90;;;;;;5099695;28;19942;-84
2020/12/12 04:06:02;;;;;;;;;;;5.70;99.90;;;;;;5099716;28;19951;-84
2020/12/12 04:08:27;;;;;;;;;;;5.60;99.90;;;;;;5081651;28;19923;-82
2020/12/12 04:10:53;;;;;;;;;;;5.70;99.90;;;;;;5081292;28;20335;-83
2020/12/12 04:13:18;;;;;;;;;;;5.70;99.90;;;;;;5100273;28;19922;-83
2020/12/12 04:15:44;;;;;;;;;;;5.70;99.90;;;;;;5100480;28;20295;-81
2020/12/12 04:18:09;;;;;;;;;;;5.70;99.90;;;;;;5081454;28;20287;-83
2020/12/12 04:20:34;;;;;;;;;;;5.70;99.90;;;;;;5099858;28;19986;-84
2020/12/12 04:23:00;;;;;;;;;;;5.70;99.90;;;;;;5080184;28;20268;-84
2020/12/12 04:25:25;;;;;;;;;;;5.70;99.90;;;;;;5082355;28;19912;-83
2020/12/12 04:27:51;;;;;;;;;;;5.70;99.90;;;;;;5080472;28;20057;-84
2020/12/12 04:30:16;;;;;;;;;;;5.70;99.90;;;;;;5100102;28;20368;-84
2020/12/12 04:32:42;;;;;;;;;;;5.70;99.90;;;;;;5081396;28;19912;-84
2020/12/12 04:35:07;;;;;;;;;;;5.70;99.90;;;;;;5099534;28;20372;-84
2020/12/12 04:37:33;;;;;;;;;;;5.80;99.90;;;;;;5082071;28;19912;-82
2020/12/12 04:39:58;;;;;;;;;;;5.70;99.90;;;;;;5096528;28;19918;-81
2020/12/12 04:42:25;;;;;;;;;;;5.80;99.90;;;;;;5083360;28;19953;-80
2020/12/12 04:44:52;;;;;;;;;;;5.80;99.90;;;;;;5102683;28;20009;-84
2020/12/12 04:47:18;;;;;;;;;;;5.70;99.90;;;;;;5102013;28;20350;-84
2020/12/12 04:49:43;;;;;;;;;;;5.80;99.90;;;;;;5099571;28;19912;-83
2020/12/12 04:52:11;;;;;;;;;;;5.80;99.90;;;;;;5099079;28;20130;-84
2020/12/12 04:54:36;;;;;;;;;;;5.80;99.90;;;;;;5100083;28;20295;-81
2020/12/12 04:57:03;;;;;;;;;;;5.80;99.90;;;;;;5098724;28;19955;-82
2020/12/12 04:59:32;;;;;;;;;;;5.80;99.90;;;;;;5082165;28;20015;-82
2020/12/12 05:01:58;;;;;;;;;;;5.80;99.90;;;;;;5097977;28;20050;-82
2020/12/12 05:04:24;;;;;;;;;;;5.80;99.90;;;;;;5099227;28;20368;-82
2020/12/12 05:06:50;;;;;;;;;;;5.80;99.90;;;;;;5081186;28;19919;-82
2020/12/12 05:09:15;;;;;;;;;;;5.80;99.90;;;;;;5081710;28;19912;-83
2020/12/12 05:11:43;;;;;;;;;;;5.80;99.90;;;;;;5099539;28;19934;-82
2020/12/12 05:14:12;;;;;;;;;;;5.90;99.90;;;;;;5098063;28;19919;-82
2020/12/12 05:16:37;;;;;;;;;;;5.90;99.90;;;;;;5098820;28;19912;-83
2020/12/12 05:19:04;;;;;;;;;;;5.90;99.90;;;;;;5079839;28;20002;-82
2020/12/12 05:21:30;;;;;;;;;;;5.90;99.90;;;;;;5098873;28;20379;-82
2020/12/12 05:23:55;;;;;;;;;;;5.90;99.90;;;;;;5098687;28;19908;-81
2020/12/12 05:26:21;;;;;;;;;;;6.00;99.90;;;;;;5080607;28;19905;-82
2020/12/12 05:28:47;;;;;;;;;;;6.00;99.90;;;;;;5082205;28;19914;-83
2020/12/12 05:31:12;;;;;;;;;;;6.00;99.90;;;;;;5096799;28;20006;-83
2020/12/12 05:33:38;;;;;;;;;;;6.00;99.90;;;;;;5081001;28;19916;-82
2020/12/12 05:36:03;;;;;;;;;;;6.00;99.90;;;;;;5098839;28;20383;-81
2020/12/12 05:38:29;;;;;;;;;;;6.00;99.90;;;;;;5101705;28;19908;-82
2020/12/12 05:40:55;;;;;;;;;;;6.00;99.90;;;;;;5100728;28;19915;-82
2020/12/12 05:43:27;;;;;;;;;;;6.00;99.90;;;;;;5099371;28;19915;-81
2020/12/12 05:45:53;;;;;;;;;;;6.00;99.90;;;;;;5081774;28;19930;-82
2020/12/12 05:48:21;;;;;;;;;;;6.00;99.90;;;;;;5098178;28;19908;-82
2020/12/12 05:50:47;;;;;;;;;;;6.00;99.90;;;;;;5098079;28;19994;-82
2020/12/12 05:53:13;;;;;;;;;;;6.00;99.90;;;;;;5097972;28;19962;-82
2020/12/12 05:55:39;;;;;;;;;;;6.00;99.90;;;;;;5097815;28;19908;-82
2020/12/12 05:58:04;;;;;;;;;;;6.10;99.90;;;;;;5098486;28;19908;-81
2020/12/12 06:00:30;;;;;;;;;;;6.10;99.90;;;;;;5097358;28;19908;-82
2020/12/12 06:03:06;;;;;;;;;;;6.00;99.90;;;;;;5097034;28;19982;-82
2020/12/12 06:05:32;;;;;;;;;;;6.10;99.90;;;;;;5080656;28;20351;-84
2020/12/12 06:08:03;;;;;;;;;;;6.10;99.90;;;;;;5097304;28;20372;-81
2020/12/12 06:10:30;;;;;;;;;;;6.10;99.90;;;;;;5099490;28;19911;-83
2020/12/12 06:12:57;;;;;;;;;;;6.20;99.90;;;;;;5097973;28;19937;-83
2020/12/12 06:15:31;;;;;;;;;;;6.30;99.90;;;;;;5098406;28;19908;-81
2020/12/12 06:18:02;;;;;;;;;;;6.30;99.90;;;;;;5097686;28;19973;-84
2020/12/12 06:20:28;;;;;;;;;;;6.40;99.90;;;;;;5079983;28;19908;-82
2020/12/12 06:22:54;;;;;;;;;;;6.40;99.90;;;;;;5097534;28;19916;-82
2020/12/12 06:25:20;;;;;;;;;;;6.40;99.90;;;;;;5095510;28;19941;-82
2020/12/12 06:27:48;;;;;;;;;;;6.30;99.90;;;;;;5098452;28;19908;-82
2020/12/12 06:30:14;;;;;;;;;;;6.30;99.90;;;;;;5097528;28;19916;-82
2020/12/12 06:32:41;;;;;;;;;;;6.30;99.90;;;;;;5096849;28;19947;-82
2020/12/12 06:35:06;;;;;;;;;;;6.20;99.90;;;;;;5079685;28;19913;-82
2020/12/12 06:37:39;;;;;;;;;;;6.20;99.90;;;;;;5097334;28;20014;-82
2020/12/12 06:40:06;;;;;;;;;;;6.20;99.90;;;;;;5078888;28;19919;-82
2020/12/12 06:42:38;;;;;;;;;;;6.20;99.90;;;;;;5079662;28;19908;-81
2020/12/12 06:45:24;;;;;;;;;;;6.10;99.90;;;;;;5097263;28;19999;-82
2020/12/12 06:47:50;;;;;;;;;;;6.10;99.90;;;;;;5098068;28;19921;-81
2020/12/12 06:50:21;;;;;;;;;;;6.20;99.90;;;;;;5078760;28;19923;-82
2020/12/12 06:52:47;;;;;;;;;;;6.10;99.90;;;;;;5076116;28;19965;-81
2020/12/12 06:55:13;;;;;;;;;;;6.20;99.90;;;;;;5096447;28;20283;-82
2020/12/12 06:57:43;;;;;;;;;;;6.10;99.90;;;;;;5095648;28;19920;-81
2020/12/12 07:00:17;;;;;;;;;;;6.20;99.90;;;;;;5078581;28;20341;-81
2020/12/12 07:02:59;;;;;;;;;;;6.20;99.90;;;;;;5079081;28;20364;-81
2020/12/12 07:05:26;;;;;;;;;;;6.10;99.90;;;;;;5078931;28;20403;-80
2020/12/12 07:07:51;;;;;;;;;;;6.20;99.90;;;;;;5079621;28;19912;-81
2020/12/12 07:10:18;;;;;;;;;;;6.30;99.90;;;;;;5097223;28;22367;-81
2020/12/12 07:12:44;;;;;;;;;;;6.30;99.90;;;;;;5097983;28;19955;-81
2020/12/12 07:15:10;;;;;;;;;;;6.40;99.90;;;;;;5079283;28;19916;-80
2020/12/12 07:17:35;;;;;;;;;;;6.50;99.90;;;;;;5098325;28;19934;-81
2020/12/12 07:20:01;;;;;;;;;;;6.50;99.90;;;;;;5098834;28;19908;-82
2020/12/12 07:22:28;;;;;;;;;;;6.60;99.90;;;;;;5080546;28;19920;-81
2020/12/12 07:24:55;;;;;;;;;;;6.60;99.90;;;;;;5098402;28;19916;-80
2020/12/12 07:27:23;;;;;;;;;;;6.60;99.90;;;;;;5091733;28;19920;-82
2020/12/12 07:29:48;;;;;;;;;;;6.60;99.90;;;;;;5098005;28;19918;-81
2020/12/12 07:32:14;;;;;;;;;;;6.60;99.90;;;;;;5079933;28;19912;-83
2020/12/12 07:34:40;;;;;;;;;;;6.50;99.90;;;;;;5075691;28;20284;-83
2020/12/12 07:37:06;;;;;;;;;;;6.50;99.90;;;;;;5074454;28;19916;-83
2020/12/12 07:39:36;;;;;;;;;;;6.50;99.90;;;;;;5098507;28;19999;-82
2020/12/12 07:42:03;;;;;;;;;;;6.50;99.90;;;;;;5097515;28;19919;-83
2020/12/12 07:44:32;;;;;;;;;;;6.60;99.90;;;;;;5098193;28;19915;-81
2020/12/12 07:47:04;;;;;;;;;;;6.60;99.90;;;;;;5097188;28;19977;-81
2020/12/12 07:49:36;;;;;;;;;;;6.60;99.90;;;;;;5079854;28;21871;-81
2020/12/12 07:52:03;;;;;;;;;;;6.60;99.90;;;;;;5097660;28;19995;-82
2020/12/12 07:54:55;;;;;;;;;;;6.60;99.90;;;;;;5078863;28;19961;-81
2020/12/12 07:57:21;;;;;;;;;;;6.70;99.90;;;;;;5073479;28;19916;-82
2020/12/12 07:59:46;;;;;;;;;;;6.80;99.90;;;;;;5097753;28;19923;-82
2020/12/12 08:02:12;;;;;;;;;;;6.80;99.90;;;;;;5099202;28;20011;-81
2020/12/12 08:04:38;;;;;;;;;;;6.80;99.90;;;;;;5083637;28;19912;-82
2020/12/12 08:07:20;;;;;;;;;;;6.90;99.90;;;;;;5079130;28;19915;-81
2020/12/12 08:09:52;;;;;;;;;;;6.90;99.90;;;;;;5084651;28;19923;-83
2020/12/12 08:12:32;;;;;;;;;;;7.00;99.90;;;;;;5083195;28;19916;-83
2020/12/12 08:15:00;;;;;;;;;;;7.00;99.90;;;;;;5081743;28;19916;-80
2020/12/12 08:17:26;;;;;;;;;;;7.00;99.90;;;;;;5082699;28;19919;-82
2020/12/12 08:19:52;;;;;;;;;;;7.10;99.90;;;;;;5083976;28;19997;-82
2020/12/12 08:22:18;;;;;;;;;;;7.10;99.90;;;;;;5101011;28;19944;-81
2020/12/12 08:24:44;;;;;;;;;;;7.10;99.90;;;;;;5081645;28;19935;-82
2020/12/12 08:27:14;;;;;;;;;;;7.10;99.90;;;;;;5100752;28;19915;-83
2020/12/12 08:29:40;;;;;;;;;;;7.10;99.90;;;;;;5101695;28;20291;-83
2020/12/12 08:32:05;;;;;;;;;;;7.10;99.90;;;;;;5083386;28;19919;-84
2020/12/12 08:34:31;;;;;;;;;;;7.10;99.90;;;;;;5083153;28;19912;-84
2020/12/12 08:36:56;;;;;;;;;;;7.10;99.90;;;;;;5084879;28;19941;-85
2020/12/12 08:39:25;;;;;;;;;;;7.10;99.90;;;;;;5100968;28;19965;-84
2020/12/12 08:41:50;;;;;;;;;;;7.10;99.90;;;;;;5085496;28;19908;-85
2020/12/12 08:44:22;;;;;;;;;;;7.20;99.90;;;;;;5100729;28;19958;-85
2020/12/12 08:46:51;;;;;;;;;;;7.20;99.90;;;;;;5089829;28;20006;-84
2020/12/12 08:49:17;;;;;;;;;;;7.30;99.90;;;;;;5085009;28;19919;-86
2020/12/12 08:51:50;;;;;;;;;;;7.30;99.90;;;;;;5098765;28;19916;-85
2020/12/12 08:54:15;;;;;;;;;;;7.30;99.90;;;;;;5100355;28;20295;-83
2020/12/12 08:56:40;;;;;;;;;;;7.30;99.90;;;;;;5101666;28;19912;-83
2020/12/12 08:59:16;;;;;;;;;;;7.30;99.90;;;;;;5099382;28;19979;-84
2020/12/12 09:01:43;;;;;;;;;;;7.30;99.90;;;;;;5100707;28;19957;-83
2020/12/12 09:04:14;;;;;;;;;;;7.40;99.90;;;;;;5081384;28;19951;-83
2020/12/12 09:06:43;;;;;;;;;;;7.40;99.90;;;;;;5080686;28;19959;-83
2020/12/12 09:09:09;;;;;;;;;;;7.40;99.90;;;;;;5082544;28;19916;-83
2020/12/12 09:11:35;;;;;;;;;;;7.40;99.90;;;;;;5100647;28;19912;-83
2020/12/12 09:14:02;;;;;;;;;;;7.50;99.90;;;;;;5079963;28;19964;-83
2020/12/12 09:16:27;;;;;;;;;;;7.50;99.90;;;;;;5082193;28;19916;-84
2020/12/12 09:18:53;;;;;;;;;;;7.50;99.90;;;;;;5099524;28;19919;-82
2020/12/12 09:24:02;;;;;;;;;;;7.60;99.90;;;;;;5100098;28;19924;-81
2020/12/12 09:26:28;;;;;;;;;;;7.60;99.90;;;;;;5101027;28;19934;-82
2020/12/12 09:28:53;;;;;;;;;;;7.60;99.90;;;;;;5100719;28;19915;-81
2020/12/12 09:31:20;;;;;;;;;;;7.60;99.90;;;;;;5082353;28;19948;-82
2020/12/12 09:33:45;;;;;;;;;;;7.70;99.90;;;;;;5101575;28;19908;-82
2020/12/12 09:36:11;;;;;;;;;;;7.80;99.90;;;;;;5082106;28;19919;-82
2020/12/12 09:38:36;;;;;;;;;;;7.80;99.90;;;;;;5081880;28;20368;-81
2020/12/12 09:41:02;;;;;;;;;;;7.80;99.90;;;;;;5081061;28;19958;-82
2020/12/12 09:43:28;;;;;;;;;;;7.90;99.90;;;;;;5081535;28;19915;-83
2020/12/12 09:45:53;;;;;;;;;;;8.10;99.90;;;;;;5084837;28;19920;-82
2020/12/12 09:48:19;;;;;;;;;;;8.10;99.90;;;;;;5090444;28;20275;-82
2020/12/12 09:50:44;;;;;;;;;;;8.10;99.90;;;;;;5099736;28;19912;-82
2020/12/12 09:53:10;;;;;;;;;;;8.20;99.90;;;;;;5085001;28;19916;-82
2020/12/12 09:55:37;;;;;;;;;;;8.30;99.90;;;;;;5089938;28;19958;-81
2020/12/12 09:58:06;;;;;;;;;;;8.30;99.90;;;;;;5102073;28;19912;-83
2020/12/12 10:00:33;;;;;;;;;;;8.40;99.90;;;;;;5096268;28;19919;-82
2020/12/12 10:02:58;;;;;;;;;;;8.40;99.90;;;;;;5097784;28;19908;-81
2020/12/12 10:05:24;;;;;;;;;;;8.50;99.90;;;;;;5068110;28;19919;-81
2020/12/12 10:07:49;;;;;;;;;;;8.50;99.90;;;;;;5089252;28;19920;-81
2020/12/12 10:10:15;;;;;;;;;;;8.70;99.90;;;;;;5080648;28;20392;-82
2020/12/12 10:12:40;;;;;;;;;;;8.90;99.90;;;;;;5083516;28;19912;-81
2020/12/12 10:15:06;;;;;;;;;;;9.00;99.90;;;;;;5065660;28;19959;-82
2020/12/12 10:17:31;;;;;;;;;;;9.10;99.90;;;;;;5089630;28;20018;-81
2020/12/12 10:19:57;;;;;;;;;;;9.10;99.90;;;;;;5081471;28;19919;-81
2020/12/12 10:22:23;;;;;;;;;;;9.10;99.90;;;;;;5065002;28;19954;-81
2020/12/12 10:24:48;;;;;;;;;;;9.10;99.90;;;;;;5090096;28;19912;-81
2020/12/12 10:27:14;;;;;;;;;;;9.00;99.90;;;;;;5097968;28;20381;-81
2020/12/12 10:29:39;;;;;;;;;;;9.00;99.90;;;;;;5086883;28;19916;-81
2020/12/12 10:32:05;;;;;;;;;;;9.00;99.90;;;;;;5062339;28;20003;-81
2020/12/12 10:34:30;;;;;;;;;;;9.00;99.90;;;;;;5088320;28;20348;-81
2020/12/12 10:36:56;;;;;;;;;;;9.10;99.90;;;;;;5084724;28;19919;-81
2020/12/12 10:39:30;;;;;;;;;;;9.10;99.90;;;;;;5080235;28;19920;-81
2020/12/12 10:41:58;;;;;;;;;;;9.10;99.90;;;;;;5082927;28;19917;-81
2020/12/12 10:44:23;;;;;;;;;;;9.20;99.90;;;;;;5080755;28;19919;-81
2020/12/12 10:46:49;;;;;;;;;;;9.20;99.90;;;;;;5082172;28;19920;-81
2020/12/12 10:49:14;;;;;;;;;;;9.20;99.90;;;;;;5085480;28;19980;-81
2020/12/12 10:51:46;;;;;;;;;;;9.20;99.90;;;;;;5089832;28;19912;-81
2020/12/12 10:54:12;;;;;;;;;;;9.30;99.90;;;;;;5085800;28;19924;-79
2020/12/12 10:56:37;;;;;;;;;;;9.30;99.90;;;;;;5064139;28;19920;-81
2020/12/12 10:59:03;;;;;;;;;;;9.40;99.90;;;;;;5081390;28;19917;-81
2020/12/12 11:01:28;;;;;;;;;;;9.50;99.90;;;;;;5086681;28;19912;-81
2020/12/12 11:03:54;;;;;;;;;;;9.60;99.90;;;;;;5083922;28;19913;-81
2020/12/12 11:06:19;;;;;;;;;;;9.60;99.90;;;;;;5084165;28;19912;-82
2020/12/12 11:08:45;;;;;;;;;;;9.50;99.90;;;;;;5092111;28;19912;-81
2020/12/12 11:11:10;;;;;;;;;;;9.50;99.90;;;;;;5064438;28;19954;-81
2020/12/12 11:13:36;;;;;;;;;;;9.50;99.90;;;;;;5090276;28;19917;-82
2020/12/12 11:16:01;;;;;;;;;;;9.50;99.90;;;;;;5097277;28;19957;-82
2020/12/12 11:18:28;;;;;;;;;;;9.60;99.90;;;;;;5097814;28;19927;-82
2020/12/12 11:20:53;;;;;;;;;;;9.70;99.90;;;;;;5092061;28;20379;-82
2020/12/12 11:23:19;;;;;;;;;;;9.70;99.90;;;;;;5095987;28;19923;-83
2020/12/12 11:25:45;;;;;;;;;;;9.60;99.90;;;;;;5085292;28;20414;-82
2020/12/12 11:28:10;;;;;;;;;;;9.70;99.90;;;;;;5092974;28;19913;-83
2020/12/12 11:30:36;;;;;;;;;;;9.70;99.90;;;;;;5084169;28;19916;-82
2020/12/12 11:33:04;;;;;;;;;;;9.70;99.90;;;;;;5063820;28;19916;-82
2020/12/12 11:35:42;;;;;;;;;;;9.80;99.90;;;;;;5092348;28;19920;-82
2020/12/12 11:38:23;;;;;;;;;;;9.80;99.90;;;;;;5061008;28;19921;-82
2020/12/12 11:48:32;;;;;;;;;;;9.70;99.90;;;;;;5083778;28;20029;-83
2020/12/12 11:50:57;;;;;;;;;;;9.70;99.90;;;;;;5089001;28;19922;-84
2020/12/12 11:53:23;;;;;;;;;;;9.80;99.90;;;;;;5101522;28;20545;-84
2020/12/12 11:55:48;;;;;;;;;;;9.80;99.90;;;;;;5101562;28;19913;-83
2020/12/12 11:58:14;;;;;;;;;;;9.90;99.90;;;;;;5083810;28;19975;-84
2020/12/12 12:00:43;;;;;;;;;;;9.90;99.90;;;;;;5086764;28;19908;-83
2020/12/12 12:03:10;;;;;;;;;;;9.90;99.90;;;;;;5098413;28;19912;-83
2020/12/12 12:05:35;;;;;;;;;;;9.90;99.90;;;;;;5092028;28;19919;-84
2020/12/12 12:08:01;;;;;;;;;;;10.00;99.90;;;;;;5092694;28;19944;-84
2020/12/12 12:10:37;;;;;;;;;;;10.00;99.90;;;;;;5098522;28;19916;-83
2020/12/12 12:13:03;;;;;;;;;;;10.00;99.90;;;;;;5090274;28;19944;-83
2020/12/12 12:15:28;;;;;;;;;;;10.00;99.90;;;;;;5096284;28;19912;-84
2020/12/12 12:17:54;;;;;;;;;;;10.10;99.90;;;;;;5073126;28;19948;-83
2020/12/12 12:20:22;;;;;;;;;;;10.10;99.90;;;;;;5101872;28;19934;-83
2020/12/12 12:22:47;;;;;;;;;;;10.10;99.90;;;;;;5089787;28;19927;-82
2020/12/12 12:25:13;;;;;;;;;;;10.10;99.90;;;;;;5088155;28;19912;-83
2020/12/12 12:27:41;;;;;;;;;;;10.10;99.90;;;;;;5088070;28;19915;-83
2020/12/12 12:30:06;;;;;;;;;;;10.10;99.90;;;;;;5094913;28;19999;-82
2020/12/12 12:32:32;;;;;;;;;;;10.10;99.90;;;;;;5091220;28;20001;-83
2020/12/12 12:34:57;;;;;;;;;;;10.00;99.90;;;;;;5083412;28;19912;-82
2020/12/12 12:37:23;;;;;;;;;;;10.00;99.90;;;;;;5082279;28;19919;-82
2020/12/12 12:39:48;;;;;;;;;;;10.00;99.90;;;;;;5079880;28;19909;-82
2020/12/12 12:42:14;;;;;;;;;;;9.90;99.90;;;;;;5081635;28;20487;-82
2020/12/12 12:44:39;;;;;;;;;;;9.90;99.90;;;;;;5082108;28;19912;-82
2020/12/12 12:47:05;;;;;;;;;;;9.90;99.90;;;;;;5085441;28;19912;-82
2020/12/12 12:49:30;;;;;;;;;;;9.90;99.90;;;;;;5084668;28;19983;-82
2020/12/12 12:51:56;;;;;;;;;;;9.90;99.90;;;;;;5083282;28;19920;-82
2020/12/12 12:54:21;;;;;;;;;;;9.90;99.90;;;;;;5085027;28;20334;-82
2020/12/12 12:56:47;;;;;;;;;;;9.90;99.90;;;;;;5079798;28;20363;-82
2020/12/12 12:59:12;;;;;;;;;;;9.90;99.90;;;;;;5078474;28;19934;-84
2020/12/12 13:01:38;;;;;;;;;;;9.90;99.90;;;;;;5063822;28;20300;-82
2020/12/12 13:04:03;;;;;;;;;;;9.90;99.90;;;;;;5083339;28;19952;-82
2020/12/12 13:06:31;;;;;;;;;;;9.90;99.90;;;;;;5090824;28;19915;-83
2020/12/12 13:08:56;;;;;;;;;;;10.00;99.90;;;;;;5091776;28;20399;-82
2020/12/12 13:11:22;;;;;;;;;;;10.00;99.90;;;;;;5069742;28;19916;-83
2020/12/12 13:13:48;;;;;;;;;;;10.00;99.90;;;;;;5083915;28;19912;-83
2020/12/12 13:16:13;;;;;;;;;;;10.10;99.90;;;;;;5081391;28;19923;-82
2020/12/12 13:18:59;;;;;;;;;;;10.10;99.90;;;;;;5087575;28;19924;-82
2020/12/12 13:21:41;;;;;;;;;;;10.10;99.90;;;;;;5078269;28;19948;-82
2020/12/12 13:24:07;;;;;;;;;;;10.10;99.90;;;;;;5082012;28;19970;-81
2020/12/12 13:26:32;;;;;;;;;;;10.00;99.90;;;;;;5100650;28;19908;-82
2020/12/12 13:31:42;;;;;;;;;;;9.90;99.90;;;;;;5080231;28;19919;-82
2020/12/12 13:34:07;;;;;;;;;;;9.90;99.90;;;;;;5081083;28;19912;-80
2020/12/12 13:36:33;;;;;;;;;;;9.80;99.90;;;;;;5080019;28;20364;-82
2020/12/12 13:38:58;;;;;;;;;;;9.80;99.90;;;;;;5090278;28;19923;-81
2020/12/12 13:41:25;;;;;;;;;;;9.80;99.90;;;;;;5100903;28;20010;-82
2020/12/12 13:43:51;;;;;;;;;;;9.80;99.90;;;;;;5091577;28;20410;-80
2020/12/12 13:46:16;;;;;;;;;;;9.80;99.90;;;;;;5080396;28;19913;-80
2020/12/12 13:48:42;;;;;;;;;;;9.70;99.90;;;;;;5082111;28;19912;-82
2020/12/12 13:51:08;;;;;;;;;;;9.70;99.90;;;;;;5084060;28;19916;-81
2020/12/12 13:53:34;;;;;;;;;;;9.70;99.90;;;;;;5062737;28;19955;-81
2020/12/12 13:55:59;;;;;;;;;;;9.70;99.90;;;;;;5096741;28;19912;-81
2020/12/12 13:58:25;;;;;;;;;;;9.70;99.90;;;;;;5098040;28;19918;-82
2020/12/12 14:00:50;;;;;;;;;;;9.70;99.90;;;;;;5078825;28;19998;-82
2020/12/12 14:03:16;;;;;;;;;;;9.70;99.90;;;;;;5095921;28;19920;-81
2020/12/12 14:05:51;;;;;;;;;;;9.70;99.90;;;;;;5077578;28;19916;-81
2020/12/12 14:08:25;;;;;;;;;;;9.70;99.90;;;;;;5078798;28;19917;-81
2020/12/12 14:22:03;;;;;;;;;;;9.80;99.90;;;;;;5094763;28;20306;-81
2020/12/12 14:24:29;;;;;;;;;;;9.80;99.90;;;;;;5087237;28;19970;-81
2020/12/12 14:29:39;;;;;;;;;;;9.80;99.90;;;;;;5083595;28;19919;-81
2020/12/12 14:32:05;;;;;;;;;;;9.80;99.90;;;;;;5103820;28;19908;-81
2020/12/12 14:34:30;;;;;;;;;;;9.70;99.90;;;;;;5099131;28;19919;-81
2020/12/12 14:36:56;;;;;;;;;;;9.80;99.90;;;;;;5099482;28;19912;-81
2020/12/12 14:39:21;;;;;;;;;;;9.70;99.90;;;;;;5088976;28;19916;-79
2020/12/12 14:41:50;;;;;;;;;;;9.70;99.90;;;;;;5081053;28;20280;-81
2020/12/12 14:44:15;;;;;;;;;;;9.70;99.90;;;;;;5083188;28;19920;-81
2020/12/12 14:46:40;;;;;;;;;;;9.70;99.90;;;;;;5078757;28;19919;-81
2020/12/12 14:49:06;;;;;;;;;;;9.70;99.90;;;;;;5071509;28;20265;-82
2020/12/12 14:51:31;;;;;;;;;;;9.60;99.90;;;;;;5069362;28;19915;-82